createdAt,value
2022-11-15T00:07:58.667Z,88.47
2022-11-15T00:18:21.506Z,87.68
2022-11-15T00:28:44.206Z,87.48
2022-11-15T00:39:07.420Z,87.46
2022-11-15T00:49:29.596Z,87.69
2022-11-15T00:59:51.884Z,87.49
2022-11-15T01:10:14.275Z,87.04
2022-11-15T01:20:44.355Z,87.60
2022-11-15T01:31:13.592Z,87.87
2022-11-15T01:41:35.873Z,87.28
2022-11-15T01:52:00.231Z,86.86
2022-11-15T02:02:23.219Z,86.93
2022-11-15T02:12:47.314Z,87.22
2022-11-15T02:23:39.844Z,87.07
2022-11-15T02:34:07.025Z,87.20
2022-11-15T02:44:38.736Z,87.26
2022-11-15T02:55:02.924Z,86.68
2022-11-15T03:05:43.805Z,86.58
2022-11-15T03:16:29.914Z,86.88
2022-11-15T03:26:55.621Z,86.75
2022-11-15T03:37:22.495Z,86.94
2022-11-15T03:47:55.424Z,86.76
2022-11-15T03:58:17.881Z,87.15
2022-11-15T04:08:40.303Z,86.85
2022-11-15T04:19:21.835Z,86.17
2022-11-15T04:29:44.323Z,86.27
2022-11-15T04:40:07.638Z,86.42
2022-11-15T04:50:30.237Z,86.56
2022-11-15T05:00:53.510Z,86.51
2022-11-15T05:11:16.243Z,86.62
2022-11-15T05:21:39.378Z,86.91
2022-11-15T05:32:02.075Z,87.33
2022-11-15T05:42:25.563Z,87.24
2022-11-15T05:52:48.829Z,87.34
2022-11-15T06:03:12.447Z,87.41
2022-11-15T06:13:35.509Z,87.69
2022-11-15T06:23:58.000Z,87.93
2022-11-15T06:34:20.291Z,88.66
2022-11-15T06:44:43.298Z,88.74
2022-11-15T06:55:06.571Z,89.14
2022-11-15T07:05:29.595Z,89.42
2022-11-15T07:15:52.010Z,89.79
2022-11-15T07:26:14.465Z,90.24
2022-11-15T07:36:37.710Z,90.53
2022-11-15T07:47:00.198Z,90.73
2022-11-15T07:57:23.232Z,90.20
2022-11-15T08:07:45.988Z,90.09
2022-11-15T08:18:13.113Z,90.29
2022-11-15T08:28:35.405Z,91.09
2022-11-15T08:38:57.792Z,91.11
2022-11-15T08:49:20.837Z,90.91
2022-11-15T08:59:44.845Z,92.86
2022-11-15T09:10:08.319Z,94.56
2022-11-15T09:20:30.626Z,95.53
2022-11-15T09:30:58.801Z,95.30
2022-11-15T09:41:30.151Z,95.85
2022-11-15T09:51:55.478Z,95.22
2022-11-15T10:02:47.467Z,94.23
2022-11-15T10:12:54.211Z,94.60
2022-11-15T10:23:02.463Z,95.63
2022-11-15T10:33:21.395Z,94.44
2022-11-15T10:43:27.536Z,92.98
2022-11-15T10:53:46.733Z,92.12
2022-11-15T11:04:10.333Z,90.97
2022-11-15T11:14:22.405Z,90.02
2022-11-15T11:24:46.948Z,88.54
2022-11-15T11:35:09.333Z,86.67
2022-11-15T11:45:25.287Z,85.29
2022-11-15T11:55:40.001Z,84.64
2022-11-15T12:05:48.398Z,84.58
2022-11-15T12:16:07.438Z,84.71
2022-11-15T12:26:20.374Z,83.55
2022-11-15T12:36:24.651Z,81.28
2022-11-15T12:46:31.530Z,79.39
2022-11-15T12:56:36.074Z,77.69
2022-11-15T13:06:47.900Z,76.53
2022-11-15T13:17:00.423Z,76.79
2022-11-15T13:27:20.998Z,76.32
2022-11-15T13:37:25.316Z,75.55
2022-11-15T13:47:31.035Z,75.83
2022-11-15T13:57:58.744Z,75.83
2022-11-15T14:08:22.362Z,75.77
2022-11-15T14:18:48.258Z,75.74
2022-11-15T14:28:52.612Z,76.32
2022-11-15T14:38:56.796Z,76.83
2022-11-15T14:49:01.076Z,77.39
2022-11-15T14:59:05.037Z,78.55
2022-11-15T15:09:09.017Z,79.15
2022-11-15T15:19:13.290Z,79.85
2022-11-15T15:29:17.165Z,80.41
2022-11-15T15:39:20.828Z,80.36
2022-11-15T15:49:25.210Z,80.45
2022-11-15T15:59:29.280Z,80.77
2022-11-15T16:09:51.981Z,81.20
2022-11-15T16:19:56.065Z,81.40
2022-11-15T16:30:00.083Z,81.72
2022-11-15T16:40:04.722Z,82.49
2022-11-15T16:50:24.558Z,83.05
2022-11-15T17:00:29.823Z,83.23
2022-11-15T17:10:34.759Z,83.22
2022-11-15T17:20:39.057Z,83.23
2022-11-15T17:30:44.322Z,83.93
2022-11-15T17:40:49.227Z,84.36
2022-11-15T17:51:05.349Z,84.76
2022-11-15T18:01:22.292Z,85.22
2022-11-15T18:11:30.568Z,85.90
2022-11-15T18:21:38.058Z,85.65
2022-11-15T18:31:47.420Z,85.88
2022-11-15T18:41:53.476Z,85.75
2022-11-15T18:51:58.985Z,85.45
2022-11-15T19:02:03.678Z,85.52
2022-11-15T19:12:09.218Z,85.35
2022-11-15T19:22:13.976Z,85.37
2022-11-15T19:32:20.719Z,86.06
2022-11-15T19:42:25.598Z,86.74
2022-11-15T19:52:30.797Z,86.74
2022-11-15T20:02:35.596Z,87.26
2022-11-15T20:12:40.184Z,87.30
2022-11-15T20:22:44.878Z,87.23
2022-11-15T20:32:58.152Z,87.99
2022-11-15T20:43:06.963Z,88.06
2022-11-15T20:53:17.859Z,88.34
2022-11-15T21:03:22.337Z,88.70
2022-11-15T21:13:28.013Z,88.80
2022-11-15T21:23:35.816Z,87.91
2022-11-15T21:33:40.058Z,87.31
2022-11-15T21:43:44.475Z,86.89
2022-11-15T21:53:48.241Z,87.46
2022-11-15T22:03:52.828Z,87.00
2022-11-15T22:13:58.705Z,87.39
2022-11-15T22:24:02.851Z,87.15
2022-11-15T22:34:07.311Z,87.02
2022-11-15T22:44:11.590Z,87.71
2022-11-15T22:54:15.868Z,87.23
2022-11-15T23:04:19.942Z,87.41
2022-11-15T23:14:23.920Z,87.84
2022-11-15T23:24:27.987Z,87.83
2022-11-15T23:34:32.697Z,88.28
2022-11-15T23:44:37.450Z,88.38
2022-11-15T23:54:42.058Z,88.43
